createdAt,value
2023-07-25T00:02:09.700Z,50.11
2023-07-25T00:04:37.749Z,50.10
2023-07-25T00:07:06.179Z,50.37
2023-07-25T00:09:34.199Z,51.14
2023-07-25T00:12:03.537Z,51.09
2023-07-25T00:14:32.211Z,51.93
2023-07-25T00:17:00.208Z,52.11
2023-07-25T00:19:28.637Z,52.62
2023-07-25T00:21:56.686Z,52.79
2023-07-25T00:24:24.953Z,52.06
2023-07-25T00:26:52.981Z,52.25
2023-07-25T00:29:22.349Z,52.58
2023-07-25T00:31:50.382Z,52.27
2023-07-25T00:34:18.415Z,52.30
2023-07-25T00:36:46.421Z,52.33
2023-07-25T00:39:14.497Z,51.74
2023-07-25T00:41:42.666Z,52.04
2023-07-25T00:44:10.900Z,52.67
2023-07-25T00:46:40.311Z,52.53
2023-07-25T00:49:08.358Z,52.69
2023-07-25T00:51:36.589Z,52.11
2023-07-25T00:54:04.705Z,53.11
2023-07-25T00:56:33.508Z,53.63
2023-07-25T00:59:01.452Z,53.60
2023-07-25T01:01:30.421Z,53.21
2023-07-25T01:04:00.170Z,53.11
2023-07-25T01:06:29.073Z,53.53
2023-07-25T01:08:58.482Z,53.94
2023-07-25T01:11:26.941Z,53.89
2023-07-25T01:13:54.929Z,53.73
2023-07-25T01:16:26.080Z,53.85
2023-07-25T01:18:55.093Z,53.60
2023-07-25T01:21:25.083Z,54.02
2023-07-25T01:23:53.163Z,54.50
2023-07-25T01:26:24.987Z,54.55
2023-07-25T01:28:52.975Z,54.44
2023-07-25T01:31:20.922Z,54.82
2023-07-25T01:33:48.959Z,54.59
2023-07-25T01:36:17.004Z,55.12
2023-07-25T01:38:45.036Z,55.25
2023-07-25T01:41:12.933Z,55.34
2023-07-25T01:43:42.376Z,55.53
2023-07-25T01:46:10.436Z,55.52
2023-07-25T01:48:38.401Z,55.62
2023-07-25T01:51:06.359Z,56.81
2023-07-25T01:53:34.316Z,57.61
2023-07-25T01:56:02.553Z,57.57
2023-07-25T01:58:30.507Z,57.23
2023-07-25T02:01:00.666Z,57.19
2023-07-25T02:03:30.160Z,57.40
2023-07-25T02:05:58.198Z,57.62
2023-07-25T02:08:26.136Z,57.82
2023-07-25T02:10:54.078Z,57.38
2023-07-25T02:13:22.108Z,57.71
2023-07-25T02:15:50.041Z,58.50
2023-07-25T02:18:19.407Z,58.66
2023-07-25T02:20:47.439Z,58.97
2023-07-25T02:23:15.404Z,59.69
2023-07-25T02:25:43.446Z,59.64
2023-07-25T02:28:11.522Z,60.92
2023-07-25T02:30:39.468Z,60.67
2023-07-25T02:33:07.474Z,60.60
2023-07-25T02:35:36.883Z,60.71
2023-07-25T02:38:04.832Z,60.76
2023-07-25T02:40:32.757Z,61.08
2023-07-25T02:43:01.059Z,60.88
2023-07-25T02:45:29.102Z,61.80
2023-07-25T02:47:57.182Z,61.40
2023-07-25T02:50:25.154Z,62.35
2023-07-25T02:52:54.627Z,61.79
2023-07-25T02:55:22.773Z,61.96
2023-07-25T02:57:50.702Z,62.44
2023-07-25T03:00:18.723Z,63.47
2023-07-25T03:02:46.734Z,63.14
2023-07-25T03:05:16.389Z,63.25
2023-07-25T03:07:44.525Z,63.33
2023-07-25T03:10:13.847Z,63.74
2023-07-25T03:12:41.980Z,63.80
2023-07-25T03:15:10.481Z,63.15
2023-07-25T03:17:38.873Z,62.57
2023-07-25T03:20:08.529Z,64.19
2023-07-25T03:22:36.676Z,64.82
2023-07-25T03:25:04.625Z,64.64
2023-07-25T03:27:34.206Z,65.73
2023-07-25T03:30:02.146Z,66.23
2023-07-25T03:32:30.241Z,65.44
2023-07-25T03:34:58.450Z,65.34
2023-07-25T03:37:26.501Z,65.82
2023-07-25T03:39:54.451Z,65.01
2023-07-25T03:42:22.552Z,64.91
2023-07-25T03:44:52.971Z,64.54
2023-07-25T03:47:20.892Z,63.55
2023-07-25T03:49:48.924Z,64.01
2023-07-25T03:52:16.858Z,64.86
2023-07-25T03:54:44.851Z,63.38
2023-07-25T03:57:12.837Z,63.46
2023-07-25T03:59:40.878Z,63.31
2023-07-25T04:02:10.471Z,64.75
2023-07-25T04:04:38.669Z,65.39
2023-07-25T04:07:07.643Z,66.16
2023-07-25T04:09:35.622Z,65.63
2023-07-25T04:12:03.589Z,65.47
2023-07-25T04:14:31.462Z,64.78
2023-07-25T04:16:59.485Z,64.43
2023-07-25T04:19:28.877Z,64.37
2023-07-25T04:21:56.836Z,65.02
2023-07-25T04:24:24.816Z,65.50
2023-07-25T04:26:52.867Z,66.67
2023-07-25T04:29:20.870Z,66.67
2023-07-25T04:31:50.083Z,67.04
2023-07-25T04:34:18.049Z,66.66
2023-07-25T04:36:47.385Z,66.80
2023-07-25T04:39:15.456Z,67.21
2023-07-25T04:41:43.398Z,67.77
2023-07-25T04:44:11.366Z,68.03
2023-07-25T04:46:39.296Z,68.55
2023-07-25T04:49:08.047Z,68.71
2023-07-25T04:51:36.082Z,69.54
2023-07-25T04:54:05.525Z,68.89
2023-07-25T04:56:33.622Z,70.04
2023-07-25T04:59:01.760Z,69.09
2023-07-25T05:01:30.146Z,68.56
2023-07-25T05:03:58.365Z,69.28
2023-07-25T05:06:26.353Z,69.23
2023-07-25T05:08:54.558Z,69.89
2023-07-25T05:11:24.011Z,69.18
2023-07-25T05:13:51.988Z,68.74
2023-07-25T05:16:20.488Z,68.66
2023-07-25T05:18:48.998Z,68.27
2023-07-25T05:21:16.984Z,67.85
2023-07-25T05:23:44.920Z,69.94
2023-07-25T05:26:12.783Z,69.67
2023-07-25T05:28:42.328Z,67.83
2023-07-25T05:31:10.314Z,66.76
2023-07-25T05:33:38.478Z,66.42
2023-07-25T05:36:06.710Z,66.78
2023-07-25T05:38:34.933Z,67.31
2023-07-25T05:41:02.979Z,67.48
2023-07-25T05:43:30.988Z,67.35
2023-07-25T05:46:00.502Z,66.22
2023-07-25T05:48:28.743Z,65.67
2023-07-25T05:50:56.681Z,65.04
2023-07-25T05:53:24.698Z,65.30
2023-07-25T05:55:52.627Z,64.79
2023-07-25T05:58:20.959Z,64.63
2023-07-25T06:00:49.937Z,64.63
2023-07-25T06:03:19.425Z,65.31
2023-07-25T06:05:47.705Z,66.35
2023-07-25T06:08:15.849Z,66.21
2023-07-25T06:10:44.721Z,65.34
2023-07-25T06:13:12.813Z,64.66
2023-07-25T06:15:40.829Z,63.70
2023-07-25T06:18:08.858Z,63.27
2023-07-25T06:20:38.131Z,62.87
2023-07-25T06:23:06.280Z,62.67
2023-07-25T06:25:34.251Z,61.54
2023-07-25T06:28:02.213Z,60.42
2023-07-25T06:30:30.594Z,60.28
2023-07-25T06:32:58.676Z,59.65
2023-07-25T06:35:26.678Z,61.56
2023-07-25T06:37:56.058Z,61.63
2023-07-25T06:40:24.354Z,60.73
2023-07-25T06:42:52.335Z,60.33
2023-07-25T06:45:20.344Z,59.34
2023-07-25T06:47:48.455Z,60.27
2023-07-25T06:50:16.522Z,58.74
2023-07-25T06:52:44.548Z,58.36
2023-07-25T06:55:13.940Z,57.28
2023-07-25T06:57:41.977Z,57.23
2023-07-25T07:00:11.615Z,58.59
2023-07-25T07:02:39.632Z,58.41
2023-07-25T07:05:23.832Z,58.63
2023-07-25T07:07:55.879Z,57.92
2023-07-25T07:10:25.272Z,56.85
2023-07-25T07:12:54.861Z,56.70
2023-07-25T07:15:25.643Z,55.45
2023-07-25T07:17:54.287Z,54.72
2023-07-25T07:20:22.819Z,55.32
2023-07-25T07:22:50.878Z,54.29
2023-07-25T07:25:18.888Z,53.43
2023-07-25T07:27:48.370Z,52.94
2023-07-25T07:30:16.373Z,51.87
2023-07-25T07:32:44.467Z,51.64
2023-07-25T07:35:12.520Z,50.77
2023-07-25T07:37:40.596Z,51.07
2023-07-25T07:40:09.806Z,50.31
2023-07-25T07:42:37.829Z,49.93
2023-07-25T07:45:09.360Z,48.38
2023-07-25T07:47:37.550Z,48.31
2023-07-25T07:50:06.142Z,48.28
2023-07-25T07:52:42.449Z,48.48
2023-07-25T07:55:13.207Z,48.36
2023-07-25T07:57:42.921Z,48.84
2023-07-25T08:00:14.941Z,47.96
2023-07-25T08:02:43.806Z,47.05
2023-07-25T08:05:13.202Z,46.31
2023-07-25T08:07:41.860Z,46.75
2023-07-25T08:10:10.649Z,45.92
2023-07-25T08:12:39.068Z,44.95
2023-07-25T08:15:08.437Z,45.26
2023-07-25T08:17:38.043Z,46.38
2023-07-25T08:20:07.586Z,46.37
2023-07-25T08:22:35.591Z,46.14
2023-07-25T08:25:03.947Z,46.33
2023-07-25T08:27:31.923Z,45.26
2023-07-25T08:30:00.190Z,45.35
2023-07-25T08:32:28.282Z,45.70
2023-07-25T08:34:57.785Z,45.02
2023-07-25T08:37:26.381Z,44.80
2023-07-25T08:39:54.460Z,44.96
2023-07-25T08:42:26.355Z,45.11
2023-07-25T08:44:55.861Z,45.03
2023-07-25T08:47:28.430Z,45.41
2023-07-25T08:49:59.564Z,44.95
2023-07-25T08:52:30.189Z,46.72
2023-07-25T08:54:58.780Z,46.75
2023-07-25T08:57:28.524Z,46.30
2023-07-25T08:59:56.886Z,44.96
2023-07-25T09:02:25.208Z,44.64
2023-07-25T09:04:54.876Z,43.60
2023-07-25T09:07:24.186Z,40.27
2023-07-25T09:09:52.335Z,40.86
2023-07-25T09:12:20.487Z,42.17
2023-07-25T09:14:48.559Z,43.57
2023-07-25T09:17:16.563Z,43.55
2023-07-25T09:19:44.589Z,43.59
2023-07-25T09:25:10.827Z,42.73
2023-07-25T09:27:38.982Z,42.41
2023-07-25T09:30:14.610Z,42.74
2023-07-25T09:32:46.972Z,42.74
2023-07-25T09:35:15.293Z,42.29
2023-07-25T09:37:43.288Z,42.00
2023-07-25T09:40:13.727Z,40.71
2023-07-25T09:42:42.727Z,40.30
2023-07-25T09:45:11.738Z,40.44
2023-07-25T09:47:40.533Z,40.95
2023-07-25T09:50:09.277Z,40.75
2023-07-25T09:52:41.746Z,40.97
2023-07-25T09:55:10.947Z,40.65
2023-07-25T09:57:41.122Z,40.42
2023-07-25T10:00:10.746Z,40.55
2023-07-25T10:02:39.623Z,39.49
2023-07-25T10:05:09.558Z,39.09
2023-07-25T10:07:39.256Z,38.81
2023-07-25T10:10:08.888Z,38.49
2023-07-25T10:12:36.858Z,37.42
2023-07-25T10:15:07.612Z,37.10
2023-07-25T10:17:35.866Z,37.18
2023-07-25T10:20:09.507Z,36.33
2023-07-25T10:22:40.727Z,36.45
2023-07-25T10:25:11.382Z,36.92
2023-07-25T10:27:39.551Z,36.70
2023-07-25T10:30:24.264Z,37.38
2023-07-25T10:32:53.920Z,37.05
2023-07-25T10:35:43.622Z,37.16
2023-07-25T10:38:12.907Z,37.02
2023-07-25T10:40:58.517Z,36.38
2023-07-25T10:43:31.073Z,36.39
2023-07-25T10:46:03.270Z,36.60
2023-07-25T10:48:37.050Z,35.94
2023-07-25T10:51:09.764Z,36.36
2023-07-25T10:53:38.081Z,35.97
2023-07-25T10:56:16.596Z,36.13
2023-07-25T10:59:06.770Z,36.52
2023-07-25T11:01:45.549Z,36.05
2023-07-25T11:04:28.129Z,35.93
2023-07-25T11:06:58.026Z,35.54
2023-07-25T11:09:27.193Z,35.83
2023-07-25T11:11:56.188Z,35.68
2023-07-25T11:14:24.491Z,35.54
2023-07-25T11:16:56.159Z,36.00
2023-07-25T11:19:28.408Z,35.75
2023-07-25T11:21:56.636Z,35.50
2023-07-25T11:24:24.706Z,36.01
2023-07-25T11:26:52.841Z,36.23
2023-07-25T11:29:20.949Z,36.48
2023-07-25T11:31:50.796Z,35.61
2023-07-25T11:34:21.641Z,35.68
2023-07-25T11:36:50.053Z,35.94
2023-07-25T11:39:19.073Z,35.16
2023-07-25T11:41:48.152Z,35.02
2023-07-25T11:44:17.962Z,35.88
2023-07-25T11:46:49.167Z,35.42
2023-07-25T11:49:28.324Z,35.46
2023-07-25T11:52:08.376Z,34.68
2023-07-25T11:54:36.698Z,34.81
2023-07-25T11:57:07.733Z,35.05
2023-07-25T11:59:41.389Z,34.70
2023-07-25T12:02:09.804Z,34.35
2023-07-25T12:04:44.010Z,34.04
2023-07-25T12:07:13.469Z,34.16
2023-07-25T12:09:41.562Z,33.78
2023-07-25T12:12:13.797Z,34.10
2023-07-25T12:14:42.433Z,33.41
2023-07-25T12:17:10.504Z,33.08
2023-07-25T12:19:38.461Z,32.89
2023-07-25T12:22:07.229Z,33.13
2023-07-25T12:24:42.700Z,32.88
2023-07-25T12:27:18.627Z,32.82
2023-07-25T12:29:46.654Z,32.30
2023-07-25T12:32:14.980Z,32.13
2023-07-25T12:34:42.896Z,32.58
2023-07-25T12:37:10.848Z,32.11
2023-07-25T12:39:40.468Z,32.40
2023-07-25T12:42:10.028Z,31.58
2023-07-25T12:44:38.220Z,31.88
2023-07-25T12:47:06.833Z,31.63
2023-07-25T12:49:35.063Z,31.05
2023-07-25T12:52:03.085Z,31.07
2023-07-25T12:54:30.980Z,30.96
2023-07-25T12:56:59.400Z,30.31
2023-07-25T12:59:28.802Z,30.05
2023-07-25T13:01:56.960Z,30.97
2023-07-25T13:04:25.073Z,30.36
2023-07-25T13:06:53.513Z,30.71
2023-07-25T13:09:21.549Z,29.92
2023-07-25T13:11:49.459Z,29.86
2023-07-25T13:14:17.452Z,29.87
2023-07-25T13:16:46.831Z,29.42
2023-07-25T13:19:15.027Z,29.79
2023-07-25T13:21:43.011Z,29.89
2023-07-25T13:24:10.949Z,29.66
2023-07-25T13:26:39.048Z,29.97
2023-07-25T13:29:07.033Z,28.29
2023-07-25T13:31:35.700Z,28.56
2023-07-25T13:34:05.127Z,28.67
2023-07-25T13:36:33.107Z,27.16
2023-07-25T13:39:01.086Z,27.73
2023-07-25T13:41:29.419Z,28.08
2023-07-25T13:43:57.638Z,27.90
2023-07-25T13:46:25.827Z,27.88
2023-07-25T13:48:53.905Z,27.79
2023-07-25T13:51:23.329Z,28.04
2023-07-25T13:53:51.305Z,28.27
2023-07-25T13:56:19.306Z,27.92
2023-07-25T13:58:47.991Z,28.09
2023-07-25T14:01:16.017Z,27.40
2023-07-25T14:03:44.021Z,27.59
2023-07-25T14:06:11.996Z,27.69
2023-07-25T14:08:41.520Z,27.58
2023-07-25T14:11:09.547Z,28.15
2023-07-25T14:13:37.513Z,27.92
2023-07-25T14:16:05.989Z,27.39
2023-07-25T14:18:34.051Z,27.30
2023-07-25T14:21:02.048Z,27.48
2023-07-25T14:23:30.143Z,27.69
2023-07-25T14:25:59.470Z,28.04
2023-07-25T14:28:27.547Z,27.89
2023-07-25T14:30:55.596Z,28.11
2023-07-25T14:33:23.645Z,28.12
2023-07-25T14:35:51.980Z,28.04
2023-07-25T14:38:20.131Z,28.26
2023-07-25T14:40:48.356Z,28.42
2023-07-25T14:43:17.660Z,28.08
2023-07-25T14:45:45.777Z,27.70
2023-07-25T14:48:13.822Z,28.17
2023-07-25T14:50:43.036Z,28.20
2023-07-25T14:53:10.988Z,27.96
2023-07-25T14:55:39.029Z,26.52
2023-07-25T14:58:07.013Z,26.42
2023-07-25T15:00:36.526Z,26.47
2023-07-25T15:03:06.058Z,26.26
2023-07-25T15:05:34.058Z,26.18
2023-07-25T15:08:01.999Z,25.87
2023-07-25T15:10:30.076Z,25.59
2023-07-25T15:12:57.992Z,26.07
2023-07-25T15:15:26.198Z,25.82
2023-07-25T15:17:56.587Z,25.71
2023-07-25T15:20:24.503Z,25.82
2023-07-25T15:22:52.465Z,25.70
2023-07-25T15:25:21.649Z,25.19
2023-07-25T15:27:49.676Z,25.33
2023-07-25T15:30:18.655Z,25.28
2023-07-25T15:32:46.684Z,26.00
2023-07-25T15:35:16.138Z,25.75
2023-07-25T15:37:44.026Z,25.81
2023-07-25T15:40:12.698Z,25.42
2023-07-25T15:42:40.641Z,25.81
2023-07-25T15:45:09.722Z,25.72
2023-07-25T15:47:37.714Z,25.85
2023-07-25T15:50:06.443Z,25.12
2023-07-25T15:52:36.117Z,25.11
2023-07-25T15:55:05.217Z,25.44
2023-07-25T15:57:33.241Z,25.48
2023-07-25T16:00:01.229Z,25.92
2023-07-25T16:02:29.252Z,25.67
2023-07-25T16:04:57.165Z,25.85
2023-07-25T16:07:25.146Z,26.13
2023-07-25T16:09:54.610Z,26.88
2023-07-25T16:12:22.648Z,27.32
2023-07-25T16:14:51.089Z,27.74
2023-07-25T16:17:19.129Z,28.49
2023-07-25T16:19:47.196Z,28.49
2023-07-25T16:22:15.941Z,29.19
2023-07-25T16:24:44.196Z,29.59
2023-07-25T16:27:15.019Z,30.19
2023-07-25T16:29:43.156Z,30.52
2023-07-25T16:32:11.651Z,31.01
2023-07-25T16:34:40.565Z,31.37
2023-07-25T16:37:08.549Z,32.11
2023-07-25T16:39:36.490Z,32.03
2023-07-25T16:42:04.546Z,32.83
2023-07-25T16:44:33.921Z,33.16
2023-07-25T16:47:02.008Z,33.93
2023-07-25T16:49:30.300Z,34.47
2023-07-25T16:51:58.281Z,35.64
2023-07-25T16:54:26.728Z,36.10
2023-07-25T16:56:54.621Z,36.97
2023-07-25T16:59:22.765Z,37.27
2023-07-25T17:01:52.227Z,37.89
2023-07-25T17:04:20.305Z,38.92
2023-07-25T17:06:48.255Z,39.53
2023-07-25T17:09:16.400Z,39.98
2023-07-25T17:11:44.626Z,40.61
2023-07-25T17:14:12.631Z,40.96
2023-07-25T17:16:40.718Z,41.51
2023-07-25T17:19:13.818Z,41.46
2023-07-25T17:21:42.878Z,42.62
2023-07-25T17:24:10.830Z,42.29
2023-07-25T17:26:39.037Z,42.23
2023-07-25T17:29:07.214Z,43.28
2023-07-25T17:31:35.731Z,43.97
2023-07-25T17:34:04.260Z,44.67
2023-07-25T17:36:33.690Z,44.83
2023-07-25T17:39:01.678Z,44.95
2023-07-25T17:41:30.658Z,44.84
2023-07-25T17:43:58.924Z,44.93
2023-07-25T17:46:26.885Z,45.36
2023-07-25T17:48:56.037Z,45.00
2023-07-25T17:51:24.118Z,45.35
2023-07-25T17:53:53.494Z,46.21
2023-07-25T17:56:21.694Z,46.71
2023-07-25T17:58:49.685Z,46.84
2023-07-25T18:01:17.971Z,47.04
2023-07-25T18:03:46.030Z,47.13
2023-07-25T18:06:15.288Z,46.94
2023-07-25T18:08:43.254Z,46.99
2023-07-25T18:11:12.760Z,47.19
2023-07-25T18:13:40.723Z,47.57
2023-07-25T18:16:09.027Z,47.64
2023-07-25T18:18:37.134Z,48.02
2023-07-25T18:21:06.281Z,48.32
2023-07-25T18:23:35.869Z,49.30
2023-07-25T18:26:03.978Z,49.97
2023-07-25T18:28:33.309Z,49.96
2023-07-25T18:31:01.208Z,50.38
2023-07-25T18:33:29.336Z,50.45
2023-07-25T18:35:57.356Z,50.88
2023-07-25T18:38:25.426Z,50.47
2023-07-25T18:40:53.364Z,50.36
2023-07-25T18:43:26.346Z,50.93
2023-07-25T18:45:55.738Z,51.25
2023-07-25T18:48:24.022Z,51.57
2023-07-25T18:50:53.313Z,51.62
2023-07-25T18:53:21.303Z,51.79
2023-07-25T18:55:50.214Z,51.46
2023-07-25T18:58:18.293Z,51.77
2023-07-25T19:00:46.261Z,51.51
2023-07-25T19:03:15.675Z,51.86
2023-07-25T19:05:43.666Z,52.25
2023-07-25T19:08:11.673Z,52.67
2023-07-25T19:10:39.619Z,52.93
2023-07-25T19:13:07.583Z,53.20
2023-07-25T19:15:35.695Z,54.50
2023-07-25T19:18:03.894Z,54.73
2023-07-25T19:20:33.306Z,54.43
2023-07-25T19:23:14.999Z,54.73
2023-07-25T19:25:47.620Z,54.71
2023-07-25T19:28:15.536Z,54.69
2023-07-25T19:30:44.794Z,55.16
2023-07-25T19:33:12.904Z,55.65
2023-07-25T19:35:42.239Z,56.70
2023-07-25T19:38:11.767Z,57.02
2023-07-25T19:40:39.801Z,57.03
2023-07-25T19:43:07.768Z,57.03
2023-07-25T19:45:35.680Z,56.96
2023-07-25T19:48:03.740Z,57.46
2023-07-25T19:50:31.746Z,56.99
2023-07-25T19:53:01.172Z,56.76
2023-07-25T19:55:29.340Z,57.74
2023-07-25T19:57:57.351Z,57.08
2023-07-25T20:00:25.378Z,57.71
2023-07-25T20:02:53.504Z,58.30
2023-07-25T20:05:21.934Z,58.96
2023-07-25T20:07:49.925Z,57.64
2023-07-25T20:10:19.170Z,57.42
2023-07-25T20:12:47.206Z,58.46
2023-07-25T20:15:16.194Z,57.81
2023-07-25T20:17:46.397Z,56.83
2023-07-25T20:20:14.500Z,57.38
2023-07-25T20:22:42.559Z,57.07
2023-07-25T20:25:11.622Z,57.10
2023-07-25T20:27:41.052Z,57.15
2023-07-25T20:30:10.349Z,57.28
2023-07-25T20:32:38.448Z,57.52
2023-07-25T20:35:07.167Z,57.68
2023-07-25T20:37:35.167Z,57.57
2023-07-25T20:40:06.480Z,57.29
2023-07-25T20:42:35.994Z,56.92
2023-07-25T20:45:05.856Z,56.81
2023-07-25T20:47:34.591Z,57.41
2023-07-25T20:50:05.322Z,57.13
2023-07-25T20:52:33.403Z,56.22
2023-07-25T20:55:01.384Z,56.86
2023-07-25T20:57:29.396Z,57.92
2023-07-25T20:59:57.678Z,57.37
2023-07-25T21:02:27.170Z,57.13
2023-07-25T21:04:55.392Z,57.05
2023-07-25T21:07:23.659Z,57.97
2023-07-25T21:09:55.128Z,58.43
2023-07-25T21:12:23.060Z,58.24
2023-07-25T21:14:51.222Z,57.74
2023-07-25T21:17:19.207Z,58.50
2023-07-25T21:19:48.603Z,59.57
2023-07-25T21:22:16.729Z,59.89
2023-07-25T21:24:44.751Z,60.76
2023-07-25T21:27:15.479Z,61.27
2023-07-25T21:29:43.636Z,61.14
2023-07-25T21:32:11.649Z,60.55
2023-07-25T21:34:39.705Z,59.91
2023-07-25T21:37:09.353Z,62.67
2023-07-25T21:39:37.546Z,63.82
2023-07-25T21:42:06.008Z,63.75
2023-07-25T21:44:34.044Z,64.98
2023-07-25T21:47:02.044Z,64.24
2023-07-25T21:49:30.083Z,64.81
2023-07-25T21:51:58.150Z,65.07
2023-07-25T21:54:27.668Z,65.75
2023-07-25T21:56:55.650Z,65.19
2023-07-25T21:59:23.720Z,64.92
2023-07-25T22:01:53.213Z,64.08
2023-07-25T22:04:21.361Z,63.53
2023-07-25T22:06:49.300Z,64.36
2023-07-25T22:09:18.062Z,64.33
2023-07-25T22:11:47.620Z,64.92
2023-07-25T22:14:15.686Z,65.63
2023-07-25T22:16:44.256Z,65.69
2023-07-25T22:19:12.444Z,65.62
2023-07-25T22:21:40.627Z,64.20
2023-07-25T22:24:09.033Z,63.92
2023-07-25T22:26:37.156Z,64.64
2023-07-25T22:29:06.494Z,64.76
2023-07-25T22:31:37.129Z,65.60
2023-07-25T22:34:05.922Z,66.05
2023-07-25T22:36:34.076Z,64.99
2023-07-25T22:39:02.400Z,64.41
2023-07-25T22:41:30.362Z,64.36
2023-07-25T22:43:58.278Z,64.65
2023-07-25T22:46:27.793Z,63.91
2023-07-25T22:48:55.797Z,63.84
2023-07-25T22:51:23.935Z,63.62
2023-07-25T22:53:52.088Z,63.14
2023-07-25T22:56:20.210Z,62.76
2023-07-25T22:58:48.503Z,62.95
2023-07-25T23:01:16.679Z,63.09
2023-07-25T23:03:46.063Z,62.34
2023-07-25T23:06:14.253Z,63.15
2023-07-25T23:08:42.225Z,63.08
2023-07-25T23:11:11.214Z,63.57
2023-07-25T23:13:39.198Z,64.00
2023-07-25T23:16:07.379Z,64.16
2023-07-25T23:18:35.479Z,64.17
2023-07-25T23:21:05.018Z,64.37
2023-07-25T23:23:33.022Z,63.71
2023-07-25T23:26:05.273Z,63.71
2023-07-25T23:28:33.623Z,63.26
2023-07-25T23:31:02.408Z,63.16
2023-07-25T23:33:30.494Z,62.79
2023-07-25T23:35:58.510Z,63.34
2023-07-25T23:38:28.053Z,63.50
2023-07-25T23:40:56.034Z,62.55
2023-07-25T23:43:23.999Z,63.46
2023-07-25T23:45:52.349Z,64.39
2023-07-25T23:48:20.959Z,63.99
2023-07-25T23:50:49.204Z,64.23
2023-07-25T23:53:17.222Z,65.11
2023-07-25T23:55:46.709Z,64.14
2023-07-25T23:58:14.728Z,64.21
